Check out our new BloomSky Weather System.

Active alerts


No alerts


Thunder radar  blitzortung!


Rain radar more information rain snow radar


Visit our other weather sites:

Template documentation
and downloads

And another site



Weather Underground History page Text

Daily Summary for April 4, 2017 Units:  English    Metric   Both
« Previous Day
Next Day »
Daily Weekly Monthly Yearly Custom
  High: Low: Average:
Temperature: 88.2 °F 59.5 °F 74.8 °F
Dew Point: 70.7 °F 53.1 °F 61.5 °F
Humidity: 99 % 31 % 69 %
Wind Speed: 15.0 mph 0.0 mph 3.7 mph
Wind Gust: 20.0 mph - -
Wind:- - SSE
Pressure: 29.75 in 29.63 in -
Precipitation: 0.00 in    
Historical Graphs
 
 
Tabular Data for April 4, 2017
Time Temperature Dew Point Pressure Wind Wind Speed Wind Gust Humidity Rainfall Rate (Hourly)
00:05 65.3 °F 60.3 °F 29.74 in Calm     84 % 0.00 in
00:10 65.3 °F 60.6 °F 29.74 in SSE 1.0 mph   85 % 0.00 in
00:14 65.5 °F 61.2 °F 29.74 in Calm   1.0 mph 86 % 0.00 in
00:19 65.7 °F 61.3 °F 29.74 in South 1.0 mph 1.0 mph 86 % 0.00 in
00:25 66.4 °F 62.4 °F 29.74 in SSW 3.0 mph 3.0 mph 87 % 0.00 in
00:30 67.3 °F 62.6 °F 29.74 in SSW 3.0 mph 5.0 mph 85 % 0.00 in
00:35 67.6 °F 62.6 °F 29.74 in SSW 2.0 mph 5.0 mph 84 % 0.00 in
00:40 67.8 °F 62.4 °F 29.73 in South 2.0 mph 5.0 mph 83 % 0.00 in
00:45 68.0 °F 62.2 °F 29.73 in SSE 2.0 mph 5.0 mph 82 % 0.00 in
00:50 68.2 °F 62.4 °F 29.74 in SSE 4.0 mph 4.0 mph 82 % 0.00 in
00:53 68.0 °F 62.2 °F 29.74 in ESE 3.0 mph 4.0 mph 82 % 0.00 in
00:58 68.2 °F 62.8 °F 29.74 in SSW 1.0 mph 4.0 mph 83 % 0.00 in
01:03 68.2 °F 62.8 °F 29.74 in South 2.0 mph 4.0 mph 83 % 0.00 in
01:08 68.0 °F 62.6 °F 29.73 in SSE 1.0 mph 4.0 mph 83 % 0.00 in
01:13 67.8 °F 62.4 °F 29.74 in South 1.0 mph 4.0 mph 83 % 0.00 in
01:14 67.8 °F 62.4 °F 29.73 in South 3.0 mph 4.0 mph 83 % 0.00 in
01:19 67.6 °F 62.6 °F 29.74 in SSW 2.0 mph 3.0 mph 84 % 0.00 in
01:24 67.5 °F 62.4 °F 29.74 in SSE 1.0 mph 3.0 mph 84 % 0.00 in
01:29 67.3 °F 62.2 °F 29.74 in Calm   3.0 mph 84 % 0.00 in
01:34 67.1 °F 62.4 °F 29.74 in South 1.0 mph 3.0 mph 85 % 0.00 in
01:39 66.9 °F 62.2 °F 29.74 in Calm   3.0 mph 85 % 0.00 in
01:44 66.6 °F 61.9 °F 29.74 in South 1.0 mph 2.0 mph 85 % 0.00 in
01:49 66.4 °F 62.1 °F 29.73 in Calm   2.0 mph 86 % 0.00 in
01:54 66.4 °F 62.1 °F 29.73 in Calm   2.0 mph 86 % 0.00 in
01:59 66.2 °F 61.9 °F 29.73 in Calm   2.0 mph 86 % 0.00 in
02:04 65.8 °F 61.5 °F 29.73 in Calm   2.0 mph 86 % 0.00 in
02:09 65.5 °F 61.5 °F 29.73 in Calm   2.0 mph 87 % 0.00 in
02:14 65.1 °F 61.5 °F 29.73 in Calm     88 % 0.00 in
02:19 64.8 °F 61.2 °F 29.73 in Calm     88 % 0.00 in
02:24 64.4 °F 61.2 °F 29.72 in Calm     89 % 0.00 in
02:29 64.0 °F 60.8 °F 29.72 in Calm     89 % 0.00 in
02:34 63.7 °F 60.4 °F 29.72 in Calm     89 % 0.00 in
02:39 63.5 °F 60.4 °F 29.72 in Calm     90 % 0.00 in
02:44 63.3 °F 60.6 °F 29.72 in Calm     91 % 0.00 in
02:49 63.0 °F 60.3 °F 29.72 in Calm     91 % 0.00 in
02:55 62.8 °F 60.1 °F 29.72 in Calm     91 % 0.00 in
03:00 62.6 °F 59.9 °F 29.71 in Calm     91 % 0.00 in
03:04 62.4 °F 60.1 °F 29.71 in Calm     92 % 0.00 in
03:10 62.4 °F 60.1 °F 29.71 in Calm     92 % 0.00 in
03:15 62.4 °F 60.4 °F 29.70 in Calm     93 % 0.00 in
03:19 62.2 °F 60.3 °F 29.71 in Calm     93 % 0.00 in
03:25 62.1 °F 59.7 °F 29.71 in Calm     92 % 0.00 in
03:30 61.9 °F 59.9 °F 29.71 in Calm     93 % 0.00 in
03:35 61.5 °F 59.5 °F 29.71 in Calm     93 % 0.00 in
03:40 61.3 °F 59.4 °F 29.71 in Calm     93 % 0.00 in
03:45 61.2 °F 59.2 °F 29.71 in Calm     93 % 0.00 in
03:50 61.2 °F 59.4 °F 29.71 in Calm     94 % 0.00 in
03:55 60.6 °F 58.6 °F 29.72 in Calm     93 % 0.00 in
04:00 60.4 °F 58.6 °F 29.72 in Calm     94 % 0.00 in
04:05 60.4 °F 58.6 °F 29.72 in Calm     94 % 0.00 in
04:10 60.3 °F 58.5 °F 29.72 in Calm     94 % 0.00 in
04:15 60.1 °F 58.6 °F 29.72 in Calm     95 % 0.00 in
04:20 60.1 °F 58.6 °F 29.72 in Calm     95 % 0.00 in
04:25 59.9 °F 58.5 °F 29.72 in Calm     95 % 0.00 in
04:30 60.1 °F 58.6 °F 29.71 in Calm     95 % 0.00 in
04:35 60.3 °F 58.8 °F 29.71 in Calm     95 % 0.00 in
04:40 60.1 °F 58.6 °F 29.71 in Calm     95 % 0.00 in
04:45 60.3 °F 59.2 °F 29.71 in Calm     96 % 0.00 in
04:50 60.1 °F 58.6 °F 29.71 in Calm     95 % 0.00 in
04:55 59.9 °F 58.8 °F 29.71 in Calm     96 % 0.00 in
05:00 59.7 °F 58.6 °F 29.71 in Calm     96 % 0.00 in
05:05 59.7 °F 58.6 °F 29.71 in Calm     96 % 0.00 in
05:10 59.5 °F 58.5 °F 29.71 in Calm     96 % 0.00 in
05:15 59.7 °F 58.8 °F 29.71 in Calm     97 % 0.00 in
05:20 59.7 °F 58.6 °F 29.71 in Calm     96 % 0.00 in
05:25 59.5 °F 58.5 °F 29.72 in Calm     96 % 0.00 in
05:30 59.5 °F 58.6 °F 29.72 in Calm     97 % 0.00 in
05:35 59.7 °F 58.8 °F 29.72 in Calm     97 % 0.00 in
05:36 59.7 °F 58.8 °F 29.72 in Calm     97 % 0.00 in
05:41 59.9 °F 59.0 °F 29.72 in Calm     97 % 0.00 in
05:46 60.3 °F 59.4 °F 29.72 in Calm     97 % 0.00 in
05:51 60.4 °F 59.5 °F 29.72 in Calm     97 % 0.00 in
05:56 60.4 °F 59.5 °F 29.72 in Calm     97 % 0.00 in
06:01 60.4 °F 59.5 °F 29.71 in Calm     97 % 0.00 in
06:06 60.4 °F 59.5 °F 29.71 in Calm     97 % 0.00 in
06:11 60.3 °F 59.4 °F 29.71 in Calm     97 % 0.00 in
06:16 60.4 °F 59.5 °F 29.72 in Calm     97 % 0.00 in
06:21 60.4 °F 59.5 °F 29.72 in Calm     97 % 0.00 in
06:26 60.8 °F 59.9 °F 29.72 in Calm     97 % 0.00 in
06:31 61.0 °F 60.1 °F 29.73 in Calm     97 % 0.00 in
06:36 61.2 °F 60.6 °F 29.73 in Calm     98 % 0.00 in
06:41 61.2 °F 60.6 °F 29.73 in Calm   1.0 mph 98 % 0.00 in
06:46 61.2 °F 60.3 °F 29.73 in Calm   1.0 mph 97 % 0.00 in
06:51 61.2 °F 60.6 °F 29.73 in Calm   1.0 mph 98 % 0.00 in
06:56 61.3 °F 60.8 °F 29.73 in Calm   1.0 mph 98 % 0.00 in
07:01 61.5 °F 61.0 °F 29.73 in Calm   1.0 mph 98 % 0.00 in
07:06 61.5 °F 61.0 °F 29.73 in Calm   1.0 mph 98 % 0.00 in
07:11 61.5 °F 61.0 °F 29.73 in Calm   1.0 mph 98 % 0.00 in
07:16 61.9 °F 61.3 °F 29.73 in Calm   2.0 mph 98 % 0.00 in
07:21 62.1 °F 61.5 °F 29.73 in Calm   2.0 mph 98 % 0.00 in
07:26 62.2 °F 61.7 °F 29.73 in Calm   2.0 mph 98 % 0.00 in
07:31 62.2 °F 61.7 °F 29.74 in Calm   1.0 mph 98 % 0.00 in
07:36 62.2 °F 61.7 °F 29.73 in Calm   1.0 mph 98 % 0.00 in
07:41 62.8 °F 62.2 °F 29.73 in Calm   1.0 mph 98 % 0.00 in
07:46 63.0 °F 62.4 °F 29.73 in Calm   2.0 mph 98 % 0.00 in
07:51 63.3 °F 62.8 °F 29.73 in Calm   2.0 mph 98 % 0.00 in
07:56 63.9 °F 63.3 °F 29.73 in Calm   2.0 mph 98 % 0.00 in
08:01 64.6 °F 64.2 °F 29.73 in SE 1.0 mph 2.0 mph 99 % 0.00 in
08:06 65.1 °F 64.6 °F 29.74 in ESE 1.0 mph 3.0 mph 98 % 0.00 in
08:11 65.7 °F 65.1 °F 29.74 in SE 1.0 mph 3.0 mph 98 % 0.00 in
08:16 66.4 °F 65.8 °F 29.74 in SSE 1.0 mph 4.0 mph 98 % 0.00 in
08:21 67.1 °F 66.6 °F 29.74 in SSW 1.0 mph 4.0 mph 98 % 0.00 in
08:26 67.5 °F 66.6 °F 29.74 in South 3.0 mph 5.0 mph 97 % 0.00 in
08:31 67.8 °F 66.9 °F 29.75 in SE 2.0 mph 5.0 mph 97 % 0.00 in
08:36 68.5 °F 67.3 °F 29.75 in SE 1.0 mph 6.0 mph 96 % 0.00 in
08:41 69.1 °F 67.6 °F 29.75 in SE 3.0 mph 6.0 mph 95 % 0.00 in
08:46 69.4 °F 67.6 °F 29.75 in SSE 1.0 mph 6.0 mph 94 % 0.00 in
08:51 70.2 °F 68.0 °F 29.75 in South 2.0 mph 6.0 mph 93 % 0.00 in
08:56 71.1 °F 68.5 °F 29.75 in SW 2.0 mph 6.0 mph 92 % 0.00 in
09:01 71.8 °F 68.4 °F 29.75 in SSE 3.0 mph 3.0 mph 89 % 0.00 in
09:06 72.1 °F 68.4 °F 29.75 in SSW 4.0 mph 6.0 mph 88 % 0.00 in
09:11 72.3 °F 67.6 °F 29.75 in South 3.0 mph 6.0 mph 85 % 0.00 in
09:16 72.7 °F 67.6 °F 29.75 in SSW 4.0 mph 7.0 mph 84 % 0.00 in
09:21 72.9 °F 67.8 °F 29.75 in SSE 4.0 mph 7.0 mph 84 % 0.00 in
09:27 73.4 °F 68.0 °F 29.75 in SW 2.0 mph 7.0 mph 83 % 0.00 in
09:31 74.1 °F 68.2 °F 29.74 in SSW 3.0 mph 7.0 mph 82 % 0.00 in
09:34 74.3 °F 68.0 °F 29.74 in SE 4.0 mph 7.0 mph 81 % 0.00 in
09:39 74.5 °F 67.5 °F 29.75 in SSE 2.0 mph 7.0 mph 79 % 0.00 in
09:44 75.0 °F 67.6 °F 29.75 in SSE 1.0 mph 6.0 mph 78 % 0.00 in
09:49 75.6 °F 67.5 °F 29.75 in SSW 2.0 mph 6.0 mph 76 % 0.00 in
09:54 75.9 °F 66.6 °F 29.75 in SE 6.0 mph 6.0 mph 73 % 0.00 in
09:59 76.3 °F 66.6 °F 29.74 in ESE 5.0 mph 10.0 mph 72 % 0.00 in
10:04 76.6 °F 65.3 °F 29.74 in SSW 5.0 mph 10.0 mph 68 % 0.00 in
10:09 76.8 °F 65.8 °F 29.74 in SE 9.0 mph 11.0 mph 69 % 0.00 in
10:14 77.2 °F 64.6 °F 29.74 in SE 4.0 mph 11.0 mph 65 % 0.00 in
10:19 77.5 °F 65.7 °F 29.74 in South 2.0 mph 11.0 mph 67 % 0.00 in
10:24 78.1 °F 64.9 °F 29.74 in SW 3.0 mph 9.0 mph 64 % 0.00 in
10:29 78.6 °F 64.0 °F 29.74 in South 5.0 mph 9.0 mph 61 % 0.00 in
10:34 78.6 °F 64.0 °F 29.74 in SW 6.0 mph 11.0 mph 61 % 0.00 in
10:39 79.2 °F 63.7 °F 29.74 in South 4.0 mph 11.0 mph 59 % 0.00 in
10:44 79.5 °F 63.5 °F 29.74 in SE 4.0 mph 11.0 mph 58 % 0.00 in
10:49 79.7 °F 61.5 °F 29.75 in SSW 5.0 mph 11.0 mph 54 % 0.00 in
10:54 80.1 °F 62.4 °F 29.75 in SSE 5.0 mph 11.0 mph 55 % 0.00 in
10:59 80.2 °F 61.0 °F 29.75 in SE 7.0 mph 11.0 mph 52 % 0.00 in
11:04 80.6 °F 62.4 °F 29.75 in South 8.0 mph 11.0 mph 54 % 0.00 in
11:09 80.8 °F 61.5 °F 29.75 in SSW 7.0 mph 11.0 mph 52 % 0.00 in
11:14 81.1 °F 61.9 °F 29.75 in ESE 4.0 mph 11.0 mph 52 % 0.00 in
11:19 81.3 °F 61.5 °F 29.75 in SSE 6.0 mph 10.0 mph 51 % 0.00 in
11:24 81.5 °F 62.2 °F 29.75 in South 4.0 mph 12.0 mph 52 % 0.00 in
11:29 82.0 °F 61.0 °F 29.75 in SE 8.0 mph 12.0 mph 49 % 0.00 in
11:34 82.2 °F 61.2 °F 29.74 in SE 6.0 mph 12.0 mph 49 % 0.00 in
11:39 82.0 °F 60.4 °F 29.74 in SSE 4.0 mph 10.0 mph 48 % 0.00 in
11:44 82.2 °F 60.6 °F 29.74 in SE 6.0 mph 11.0 mph 48 % 0.00 in
11:49 82.4 °F 62.4 °F 29.74 in South 6.0 mph 11.0 mph 51 % 0.00 in
11:54 82.6 °F 61.5 °F 29.74 in ESE 7.0 mph 13.0 mph 49 % 0.00 in
11:59 82.8 °F 62.2 °F 29.73 in NE 6.0 mph 13.0 mph 50 % 0.00 in
12:04 82.9 °F 61.2 °F 29.73 in South 4.0 mph 13.0 mph 48 % 0.00 in
12:09 83.3 °F 61.5 °F 29.73 in SSE 11.0 mph 13.0 mph 48 % 0.00 in
12:14 83.5 °F 61.7 °F 29.73 in SSE 8.0 mph 13.0 mph 48 % 0.00 in
12:19 83.7 °F 62.4 °F 29.73 in SE 4.0 mph 13.0 mph 49 % 0.00 in
12:24 83.8 °F 61.5 °F 29.73 in ESE 4.0 mph 13.0 mph 47 % 0.00 in
12:29 84.0 °F 62.8 °F 29.73 in SSE 4.0 mph 13.0 mph 49 % 0.00 in
12:34 84.4 °F 62.6 °F 29.72 in SSE 5.0 mph 13.0 mph 48 % 0.00 in
12:39 84.6 °F 62.1 °F 29.72 in ESE 9.0 mph 13.0 mph 47 % 0.00 in
12:44 84.6 °F 63.9 °F 29.72 in SSE 11.0 mph 13.0 mph 50 % 0.00 in
12:49 84.9 °F 60.6 °F 29.71 in SE 7.0 mph 13.0 mph 44 % 0.00 in
12:50 84.9 °F 60.6 °F 29.71 in South 6.0 mph 13.0 mph 44 % 0.00 in
12:55 85.3 °F 60.3 °F 29.71 in SSE 8.0 mph 13.0 mph 43 % 0.00 in
13:00 85.6 °F 60.6 °F 29.71 in SE 4.0 mph 14.0 mph 43 % 0.00 in
13:01 85.8 °F 59.4 °F 29.71 in SE 6.0 mph 14.0 mph 41 % 0.00 in
13:06 86.2 °F 61.7 °F 29.71 in South 7.0 mph 14.0 mph 44 % 0.00 in
13:11 86.5 °F 59.4 °F 29.70 in South 8.0 mph 14.0 mph 40 % 0.00 in
13:16 86.7 °F 58.8 °F 29.70 in SSE 3.0 mph 14.0 mph 39 % 0.00 in
13:21 87.1 °F 59.2 °F 29.70 in SSE 5.0 mph 14.0 mph 39 % 0.00 in
13:26 87.1 °F 56.8 °F 29.70 in South 6.0 mph 15.0 mph 36 % 0.00 in
13:31 87.1 °F 56.8 °F 29.69 in East 10.0 mph 15.0 mph 36 % 0.00 in
13:36 87.1 °F 56.1 °F 29.69 in East 12.0 mph 17.0 mph 35 % 0.00 in
13:41 87.3 °F 57.0 °F 29.69 in SSE 10.0 mph 17.0 mph 36 % 0.00 in
13:46 87.3 °F 57.0 °F 29.69 in ESE 8.0 mph 18.0 mph 36 % 0.00 in
13:51 87.4 °F 54.9 °F 29.69 in ESE 12.0 mph 18.0 mph 33 % 0.00 in
13:56 87.4 °F 57.2 °F 29.69 in SE 8.0 mph 18.0 mph 36 % 0.00 in
14:01 87.4 °F 56.5 °F 29.69 in SSW 5.0 mph 18.0 mph 35 % 0.00 in
14:06 87.6 °F 56.7 °F 29.69 in SSE 12.0 mph 16.0 mph 35 % 0.00 in
14:11 87.8 °F 55.0 °F 29.69 in SE 9.0 mph 15.0 mph 33 % 0.00 in
14:16 87.8 °F 55.9 °F 29.69 in ESE 8.0 mph 15.0 mph 34 % 0.00 in
14:21 88.0 °F 55.2 °F 29.68 in SSE 9.0 mph 15.0 mph 33 % 0.00 in
14:26 88.2 °F 53.8 °F 29.68 in SE 6.0 mph 15.0 mph 31 % 0.00 in
14:31 88.0 °F 53.6 °F 29.68 in South 12.0 mph 18.0 mph 31 % 0.00 in
14:36 87.6 °F 55.8 °F 29.68 in South 4.0 mph 18.0 mph 34 % 0.00 in
14:41 87.4 °F 53.1 °F 29.67 in SE 9.0 mph 20.0 mph 31 % 0.00 in
14:46 87.4 °F 54.9 °F 29.68 in ESE 15.0 mph 20.0 mph 33 % 0.00 in
14:51 87.3 °F 53.8 °F 29.67 in East 13.0 mph 20.0 mph 32 % 0.00 in
14:56 87.3 °F 54.7 °F 29.67 in SE 12.0 mph 20.0 mph 33 % 0.00 in
15:01 87.4 °F 56.5 °F 29.67 in SSW 6.0 mph 20.0 mph 35 % 0.00 in
15:06 87.3 °F 57.0 °F 29.67 in South 10.0 mph 20.0 mph 36 % 0.00 in
15:11 87.4 °F 57.2 °F 29.66 in SSE 5.0 mph 16.0 mph 36 % 0.00 in
15:16 87.1 °F 57.6 °F 29.66 in SE 11.0 mph 15.0 mph 37 % 0.00 in
15:21 87.3 °F 56.3 °F 29.66 in SSE 5.0 mph 15.0 mph 35 % 0.00 in
15:26 87.4 °F 57.9 °F 29.66 in East 12.0 mph 16.0 mph 37 % 0.00 in
15:31 87.3 °F 59.4 °F 29.66 in ENE 9.0 mph 17.0 mph 39 % 0.00 in
15:36 87.3 °F 58.6 °F 29.66 in South 6.0 mph 17.0 mph 38 % 0.00 in
15:41 87.1 °F 59.9 °F 29.66 in SSE 4.0 mph 17.0 mph 40 % 0.00 in
15:46 87.1 °F 60.4 °F 29.65 in ESE 7.0 mph 14.0 mph 41 % 0.00 in
15:51 87.1 °F 59.9 °F 29.65 in ESE 6.0 mph 14.0 mph 40 % 0.00 in
15:56 87.1 °F 60.4 °F 29.65 in SSE 7.0 mph 12.0 mph 41 % 0.00 in
16:01 87.3 °F 60.6 °F 29.65 in SSE 3.0 mph 12.0 mph 41 % 0.00 in
16:06 87.4 °F 59.4 °F 29.65 in SSE 8.0 mph 12.0 mph 39 % 0.00 in
16:11 87.3 °F 58.6 °F 29.64 in SSE 9.0 mph 13.0 mph 38 % 0.00 in
16:16 87.1 °F 57.6 °F 29.64 in SE 8.0 mph 14.0 mph 37 % 0.00 in
16:21 87.1 °F 56.8 °F 29.64 in East 8.0 mph 14.0 mph 36 % 0.00 in
16:27 87.1 °F 58.5 °F 29.64 in SE 7.0 mph 14.0 mph 38 % 0.00 in
16:28 87.1 °F 58.5 °F 29.64 in SE 5.0 mph 14.0 mph 38 % 0.00 in
16:33 87.1 °F 57.6 °F 29.64 in SSE 3.0 mph 14.0 mph 37 % 0.00 in
16:38 86.9 °F 56.7 °F 29.64 in SE 9.0 mph 15.0 mph 36 % 0.00 in
16:43 87.1 °F 57.6 °F 29.63 in SE 7.0 mph 15.0 mph 37 % 0.00 in
16:48 87.1 °F 56.8 °F 29.64 in SE 6.0 mph 15.0 mph 36 % 0.00 in
16:53 87.1 °F 56.1 °F 29.63 in SE 5.0 mph 14.0 mph 35 % 0.00 in
16:58 87.1 °F 56.8 °F 29.63 in SE 8.0 mph 13.0 mph 36 % 0.00 in
17:03 87.1 °F 55.2 °F 29.63 in SW 5.0 mph 11.0 mph 34 % 0.00 in
17:04 87.1 °F 54.5 °F 29.63 in East 2.0 mph 11.0 mph 33 % 0.00 in
17:09 87.3 °F 56.3 °F 29.63 in SSE 2.0 mph 11.0 mph 35 % 0.00 in
17:14 87.4 °F 56.5 °F 29.63 in SSE 4.0 mph 11.0 mph 35 % 0.00 in
17:19 87.4 °F 55.6 °F 29.63 in ESE 5.0 mph 11.0 mph 34 % 0.00 in
17:24 87.4 °F 55.6 °F 29.63 in SSE 8.0 mph 13.0 mph 34 % 0.00 in
17:29 87.3 °F 55.4 °F 29.63 in ESE 5.0 mph 13.0 mph 34 % 0.00 in
17:34 87.1 °F 55.2 °F 29.63 in South 5.0 mph 13.0 mph 34 % 0.00 in
17:39 87.3 °F 56.3 °F 29.63 in SE 8.0 mph 11.0 mph 35 % 0.00 in
17:44 87.3 °F 56.3 °F 29.63 in SE 4.0 mph 12.0 mph 35 % 0.00 in
17:50 87.1 °F 56.8 °F 29.63 in SSE 9.0 mph 12.0 mph 36 % 0.00 in
17:55 86.9 °F 57.6 °F 29.63 in East 9.0 mph 12.0 mph 37 % 0.00 in
18:00 86.7 °F 57.4 °F 29.63 in SSE 3.0 mph 13.0 mph 37 % 0.00 in
18:05 86.5 °F 56.5 °F 29.63 in ESE 5.0 mph 14.0 mph 36 % 0.00 in
18:10 86.4 °F 57.0 °F 29.63 in ESE 7.0 mph 14.0 mph 37 % 0.00 in
18:15 86.2 °F 57.6 °F 29.63 in ESE 4.0 mph 14.0 mph 38 % 0.00 in
18:20 86.2 °F 57.6 °F 29.63 in SE 9.0 mph 12.0 mph 38 % 0.00 in
18:25 85.8 °F 56.5 °F 29.64 in SSE 10.0 mph 13.0 mph 37 % 0.00 in
18:30 85.6 °F 57.2 °F 29.64 in ESE 6.0 mph 13.0 mph 38 % 0.00 in
18:35 85.5 °F 57.0 °F 29.64 in SSE 5.0 mph 13.0 mph 38 % 0.00 in
18:40 85.1 °F 57.4 °F 29.64 in SSE 5.0 mph 14.0 mph 39 % 0.00 in
18:45 84.9 °F 57.9 °F 29.64 in South 5.0 mph 14.0 mph 40 % 0.00 in
18:50 84.7 °F 57.7 °F 29.64 in SSE 3.0 mph 14.0 mph 40 % 0.00 in
18:55 84.6 °F 57.6 °F 29.64 in SE 3.0 mph 10.0 mph 40 % 0.00 in
19:00 84.4 °F 57.4 °F 29.65 in SE 3.0 mph 10.0 mph 40 % 0.00 in
19:05 84.0 °F 57.7 °F 29.65 in South 6.0 mph 11.0 mph 41 % 0.00 in
19:10 83.7 °F 58.8 °F 29.65 in SE 3.0 mph 11.0 mph 43 % 0.00 in
19:15 83.5 °F 57.9 °F 29.65 in SE 5.0 mph 11.0 mph 42 % 0.00 in
19:20 83.1 °F 58.3 °F 29.65 in SE 6.0 mph 10.0 mph 43 % 0.00 in
19:25 82.9 °F 57.6 °F 29.65 in SSW 2.0 mph 10.0 mph 42 % 0.00 in
19:30 82.6 °F 57.2 °F 29.65 in SE 7.0 mph 9.0 mph 42 % 0.00 in
19:31 82.6 °F 57.2 °F 29.65 in ESE 6.0 mph 9.0 mph 42 % 0.00 in
19:36 82.0 °F 57.9 °F 29.65 in SE 3.0 mph 11.0 mph 44 % 0.00 in
19:41 81.7 °F 57.6 °F 29.65 in SSE 7.0 mph 11.0 mph 44 % 0.00 in
19:46 81.3 °F 57.4 °F 29.65 in ESE 4.0 mph 11.0 mph 44 % 0.00 in
19:51 81.0 °F 57.6 °F 29.65 in East 2.0 mph 9.0 mph 45 % 0.00 in
19:56 80.4 °F 57.7 °F 29.65 in SE 3.0 mph 9.0 mph 46 % 0.00 in
20:01 80.2 °F 58.1 °F 29.66 in SE 2.0 mph 7.0 mph 47 % 0.00 in
20:06 79.9 °F 59.0 °F 29.66 in SE 2.0 mph 7.0 mph 49 % 0.00 in
20:11 79.5 °F 59.2 °F 29.66 in ESE 4.0 mph 8.0 mph 50 % 0.00 in
20:16 79.2 °F 60.1 °F 29.66 in ESE 4.0 mph 8.0 mph 52 % 0.00 in
20:21 79.0 °F 61.5 °F 29.66 in SE 5.0 mph 8.0 mph 55 % 0.00 in
20:26 78.6 °F 63.5 °F 29.66 in SE 4.0 mph 9.0 mph 60 % 0.00 in
20:31 78.3 °F 65.1 °F 29.66 in SSE 11.0 mph 11.0 mph 64 % 0.00 in
20:36 78.1 °F 65.8 °F 29.66 in SE 6.0 mph 11.0 mph 66 % 0.00 in
20:41 77.7 °F 66.4 °F 29.67 in SSE 9.0 mph 13.0 mph 68 % 0.00 in
20:46 77.5 °F 66.6 °F 29.67 in SSW 3.0 mph 13.0 mph 69 % 0.00 in
20:51 77.2 °F 66.6 °F 29.67 in SSE 7.0 mph 13.0 mph 70 % 0.00 in
20:56 77.0 °F 66.9 °F 29.67 in East 6.0 mph 12.0 mph 71 % 0.00 in
21:01 76.8 °F 67.5 °F 29.67 in SSW 7.0 mph 14.0 mph 73 % 0.00 in
21:06 76.5 °F 68.0 °F 29.68 in South 9.0 mph 16.0 mph 75 % 0.00 in
21:11 76.1 °F 68.7 °F 29.68 in SSE 10.0 mph 16.0 mph 78 % 0.00 in
21:16 75.7 °F 68.7 °F 29.68 in South 9.0 mph 17.0 mph 79 % 0.00 in
21:21 75.4 °F 69.1 °F 29.69 in ESE 6.0 mph 17.0 mph 81 % 0.00 in
21:26 75.0 °F 69.1 °F 29.70 in SSE 6.0 mph 17.0 mph 82 % 0.00 in
21:31 74.8 °F 69.3 °F 29.71 in ESE 5.0 mph 14.0 mph 83 % 0.00 in
21:36 74.8 °F 69.3 °F 29.70 in SSE 5.0 mph 14.0 mph 83 % 0.00 in
21:41 74.7 °F 69.4 °F 29.70 in SSE 5.0 mph 12.0 mph 84 % 0.00 in
21:46 74.5 °F 69.3 °F 29.70 in ESE 6.0 mph 12.0 mph 84 % 0.00 in
21:51 74.5 °F 69.3 °F 29.70 in SE 2.0 mph 12.0 mph 84 % 0.00 in
21:56 74.1 °F 69.3 °F 29.70 in SSW 2.0 mph 11.0 mph 85 % 0.00 in
22:01 74.1 °F 69.3 °F 29.71 in South 4.0 mph 11.0 mph 85 % 0.00 in
22:06 73.9 °F 69.4 °F 29.71 in SSE 5.0 mph 10.0 mph 86 % 0.00 in
22:11 73.9 °F 69.4 °F 29.71 in South 1.0 mph 10.0 mph 86 % 0.00 in
22:16 73.8 °F 69.3 °F 29.71 in SSW 4.0 mph 10.0 mph 86 % 0.00 in
22:21 73.8 °F 69.3 °F 29.71 in SE 3.0 mph 8.0 mph 86 % 0.00 in
22:26 73.8 °F 69.6 °F 29.71 in South 3.0 mph 8.0 mph 87 % 0.00 in
22:31 73.8 °F 69.6 °F 29.71 in SSE 3.0 mph 7.0 mph 87 % 0.00 in
22:36 73.6 °F 69.4 °F 29.71 in SSE 3.0 mph 7.0 mph 87 % 0.00 in
22:41 73.6 °F 69.4 °F 29.71 in ESE 4.0 mph 7.0 mph 87 % 0.00 in
22:46 73.6 °F 69.4 °F 29.71 in SE 3.0 mph 7.0 mph 87 % 0.00 in
22:51 73.4 °F 69.6 °F 29.71 in SE 1.0 mph 6.0 mph 88 % 0.00 in
22:56 73.4 °F 69.6 °F 29.71 in SSE 3.0 mph 6.0 mph 88 % 0.00 in
23:02 73.4 °F 69.6 °F 29.72 in South 4.0 mph 6.0 mph 88 % 0.00 in
23:07 73.4 °F 69.6 °F 29.72 in South 3.0 mph 6.0 mph 88 % 0.00 in
23:12 73.4 °F 70.0 °F 29.72 in SE 3.0 mph 6.0 mph 89 % 0.00 in
23:17 73.6 °F 70.2 °F 29.72 in SSW 3.0 mph 6.0 mph 89 % 0.00 in
23:22 73.6 °F 70.2 °F 29.72 in South 2.0 mph 5.0 mph 89 % 0.00 in
23:27 73.6 °F 70.2 °F 29.72 in SSE 3.0 mph 5.0 mph 89 % 0.00 in
23:32 73.6 °F 70.2 °F 29.71 in South 3.0 mph 5.0 mph 89 % 0.00 in
23:37 73.6 °F 70.2 °F 29.71 in SE 2.0 mph 5.0 mph 89 % 0.00 in
23:42 73.6 °F 70.2 °F 29.71 in SE 1.0 mph 5.0 mph 89 % 0.00 in
23:47 73.6 °F 70.5 °F 29.71 in SSW 2.0 mph 7.0 mph 90 % 0.00 in
23:52 73.6 °F 70.5 °F 29.70 in South 5.0 mph 7.0 mph 90 % 0.00 in
23:57 73.8 °F 70.7 °F 29.70 in SSE 2.0 mph 7.0 mph 90 % 0.00 in
Spring, Texas: Villages of Bridgestone
Compliments of Weather Underground - 2.75 mb

Script developed by  Jim McMurry - jmcmurry@mwt.net Adapted for the template by  Wim van der Kuil - Leuven-Template.eu

You find our weather info also at:

UK Metoffice

WeatherCloud

Weather Underground

Mid-South Weather Network

AWEKAS

Citizen Weather Observer Program (CWOP)

HAMweather, WeatherForYou, PWS Weather

Equipment we use:

Weather-station
Davis Vantage Vue

Weather-program
Meteohub

Weather-server
Debian 7.9 x86 (Guest)

Provider
DreamHost

Davis Vantage Vue

Meteohub

Debian 7.9 x86 (Guest)

DreamHost